sensor_id;sensor_type;location;lat;lon;timestamp;P1;durP1;ratioP1;P2;durP2;ratioP2
31730;SDS011;18310;55.586;12.286;2023-03-11T00:01:41;4.15;;;1.45;;
31730;SDS011;18310;55.586;12.286;2023-03-11T00:04:45;3.45;;;1.20;;
31730;SDS011;18310;55.586;12.286;2023-03-11T00:07:48;3.83;;;1.27;;
31730;SDS011;18310;55.586;12.286;2023-03-11T00:14:02;3.20;;;1.40;;
31730;SDS011;18310;55.586;12.286;2023-03-11T00:17:05;3.85;;;1.50;;
31730;SDS011;18310;55.586;12.286;2023-03-11T00:20:13;3.90;;;1.80;;
31730;SDS011;18310;55.586;12.286;2023-03-11T00:23:19;3.97;;;1.35;;
31730;SDS011;18310;55.586;12.286;2023-03-11T00:26:23;3.75;;;1.70;;
31730;SDS011;18310;55.586;12.286;2023-03-11T00:29:28;7.20;;;1.50;;
31730;SDS011;18310;55.586;12.286;2023-03-11T00:32:31;4.10;;;1.35;;
31730;SDS011;18310;55.586;12.286;2023-03-11T00:35:35;4.70;;;1.70;;
31730;SDS011;18310;55.586;12.286;2023-03-11T00:38:39;6.85;;;1.40;;
31730;SDS011;18310;55.586;12.286;2023-03-11T00:41:42;4.78;;;1.05;;
31730;SDS011;18310;55.586;12.286;2023-03-11T00:44:47;3.70;;;1.20;;
31730;SDS011;18310;55.586;12.286;2023-03-11T00:47:51;7.00;;;1.10;;
31730;SDS011;18310;55.586;12.286;2023-03-11T00:50:55;4.53;;;1.25;;
31730;SDS011;18310;55.586;12.286;2023-03-11T00:53:58;2.75;;;1.27;;
31730;SDS011;18310;55.586;12.286;2023-03-11T00:57:02;4.28;;;1.23;;
31730;SDS011;18310;55.586;12.286;2023-03-11T01:00:08;2.80;;;1.08;;
31730;SDS011;18310;55.586;12.286;2023-03-11T01:03:14;1.90;;;0.90;;
31730;SDS011;18310;55.586;12.286;2023-03-11T01:06:18;3.08;;;1.08;;
31730;SDS011;18310;55.586;12.286;2023-03-11T01:09:21;2.95;;;1.25;;
31730;SDS011;18310;55.586;12.286;2023-03-11T01:12:25;3.45;;;1.17;;
31730;SDS011;18310;55.586;12.286;2023-03-11T01:15:31;4.30;;;1.00;;
31730;SDS011;18310;55.586;12.286;2023-03-11T01:18:36;2.15;;;0.93;;
31730;SDS011;18310;55.586;12.286;2023-03-11T01:21:40;3.95;;;1.02;;
31730;SDS011;18310;55.586;12.286;2023-03-11T01:24:44;5.40;;;1.40;;
31730;SDS011;18310;55.586;12.286;2023-03-11T01:27:47;4.78;;;1.60;;
31730;SDS011;18310;55.586;12.286;2023-03-11T01:30:52;3.20;;;1.35;;
31730;SDS011;18310;55.586;12.286;2023-03-11T01:33:56;4.10;;;1.50;;
31730;SDS011;18310;55.586;12.286;2023-03-11T01:37:00;2.40;;;1.13;;
31730;SDS011;18310;55.586;12.286;2023-03-11T01:40:04;2.83;;;1.27;;
31730;SDS011;18310;55.586;12.286;2023-03-11T01:50:37;3.97;;;1.30;;
31730;SDS011;18310;55.586;12.286;2023-03-11T01:53:44;5.20;;;1.63;;
31730;SDS011;18310;55.586;12.286;2023-03-11T01:56:48;3.72;;;1.38;;
31730;SDS011;18310;55.586;12.286;2023-03-11T01:59:55;3.90;;;1.30;;
31730;SDS011;18310;55.586;12.286;2023-03-11T02:03:07;3.72;;;1.25;;
31730;SDS011;18310;55.586;12.286;2023-03-11T02:06:18;3.13;;;1.35;;
31730;SDS011;18310;55.586;12.286;2023-03-11T02:09:24;5.50;;;1.70;;
31730;SDS011;18310;55.586;12.286;2023-03-11T02:12:28;3.05;;;1.30;;
31730;SDS011;18310;55.586;12.286;2023-03-11T02:15:36;2.80;;;1.10;;
31730;SDS011;18310;55.586;12.286;2023-03-11T02:21:45;2.97;;;1.30;;
31730;SDS011;18310;55.586;12.286;2023-03-11T02:24:49;3.47;;;1.23;;
31730;SDS011;18310;55.586;12.286;2023-03-11T02:28:05;4.13;;;1.58;;
31730;SDS011;18310;55.586;12.286;2023-03-11T02:31:12;3.35;;;1.30;;
31730;SDS011;18310;55.586;12.286;2023-03-11T02:34:22;2.85;;;1.05;;
31730;SDS011;18310;55.586;12.286;2023-03-11T02:37:29;4.03;;;1.50;;
31730;SDS011;18310;55.586;12.286;2023-03-11T02:40:36;3.80;;;1.40;;
31730;SDS011;18310;55.586;12.286;2023-03-11T02:43:53;3.08;;;1.35;;
31730;SDS011;18310;55.586;12.286;2023-03-11T02:46:57;2.58;;;1.38;;
31730;SDS011;18310;55.586;12.286;2023-03-11T02:50:02;4.40;;;1.55;;
31730;SDS011;18310;55.586;12.286;2023-03-11T02:53:06;10.02;;;1.60;;
31730;SDS011;18310;55.586;12.286;2023-03-11T02:56:10;5.82;;;1.60;;
31730;SDS011;18310;55.586;12.286;2023-03-11T02:59:15;5.05;;;1.50;;
31730;SDS011;18310;55.586;12.286;2023-03-11T03:02:18;4.07;;;1.48;;
31730;SDS011;18310;55.586;12.286;2023-03-11T03:05:22;2.83;;;1.40;;
31730;SDS011;18310;55.586;12.286;2023-03-11T03:08:26;5.45;;;1.48;;
31730;SDS011;18310;55.586;12.286;2023-03-11T03:11:29;2.57;;;1.33;;
31730;SDS011;18310;55.586;12.286;2023-03-11T03:14:34;3.35;;;1.65;;
31730;SDS011;18310;55.586;12.286;2023-03-11T03:17:37;3.25;;;1.50;;
31730;SDS011;18310;55.586;12.286;2023-03-11T03:20:41;4.22;;;1.55;;
31730;SDS011;18310;55.586;12.286;2023-03-11T03:23:44;3.08;;;1.63;;
31730;SDS011;18310;55.586;12.286;2023-03-11T03:26:47;4.47;;;1.52;;
31730;SDS011;18310;55.586;12.286;2023-03-11T03:29:52;3.63;;;1.57;;
31730;SDS011;18310;55.586;12.286;2023-03-11T03:32:55;3.28;;;1.50;;
31730;SDS011;18310;55.586;12.286;2023-03-11T03:35:58;3.50;;;1.43;;
31730;SDS011;18310;55.586;12.286;2023-03-11T03:39:02;4.80;;;1.50;;
31730;SDS011;18310;55.586;12.286;2023-03-11T03:42:06;2.65;;;1.30;;
31730;SDS011;18310;55.586;12.286;2023-03-11T03:45:11;3.90;;;1.53;;
31730;SDS011;18310;55.586;12.286;2023-03-11T03:48:14;3.42;;;1.48;;
31730;SDS011;18310;55.586;12.286;2023-03-11T03:51:18;2.93;;;1.43;;
31730;SDS011;18310;55.586;12.286;2023-03-11T03:54:21;4.17;;;1.63;;
31730;SDS011;18310;55.586;12.286;2023-03-11T03:57:24;3.90;;;1.30;;
31730;SDS011;18310;55.586;12.286;2023-03-11T04:00:30;3.13;;;1.30;;
31730;SDS011;18310;55.586;12.286;2023-03-11T04:03:34;5.53;;;1.55;;
31730;SDS011;18310;55.586;12.286;2023-03-11T04:06:39;6.82;;;1.25;;
31730;SDS011;18310;55.586;12.286;2023-03-11T04:09:43;5.22;;;1.80;;
31730;SDS011;18310;55.586;12.286;2023-03-11T04:12:47;3.50;;;1.30;;
31730;SDS011;18310;55.586;12.286;2023-03-11T04:15:51;3.20;;;1.50;;
31730;SDS011;18310;55.586;12.286;2023-03-11T04:18:55;4.75;;;1.52;;
31730;SDS011;18310;55.586;12.286;2023-03-11T04:21:58;3.90;;;1.53;;
31730;SDS011;18310;55.586;12.286;2023-03-11T04:25:01;6.35;;;1.70;;
31730;SDS011;18310;55.586;12.286;2023-03-11T04:28:05;5.65;;;1.70;;
31730;SDS011;18310;55.586;12.286;2023-03-11T04:31:10;4.03;;;1.33;;
31730;SDS011;18310;55.586;12.286;2023-03-11T04:34:14;4.93;;;2.17;;
31730;SDS011;18310;55.586;12.286;2023-03-11T04:37:17;2.93;;;1.20;;
31730;SDS011;18310;55.586;12.286;2023-03-11T04:40:20;4.37;;;1.70;;
31730;SDS011;18310;55.586;12.286;2023-03-11T04:43:23;4.25;;;1.70;;
31730;SDS011;18310;55.586;12.286;2023-03-11T04:46:28;5.82;;;1.73;;
31730;SDS011;18310;55.586;12.286;2023-03-11T04:49:31;3.88;;;1.50;;
31730;SDS011;18310;55.586;12.286;2023-03-11T04:52:35;5.40;;;1.50;;
31730;SDS011;18310;55.586;12.286;2023-03-11T04:55:38;3.17;;;1.40;;
31730;SDS011;18310;55.586;12.286;2023-03-11T04:58:41;4.40;;;1.48;;
31730;SDS011;18310;55.586;12.286;2023-03-11T05:01:46;3.67;;;1.38;;
31730;SDS011;18310;55.586;12.286;2023-03-11T05:04:49;6.30;;;1.65;;
31730;SDS011;18310;55.586;12.286;2023-03-11T05:07:52;6.83;;;1.73;;
31730;SDS011;18310;55.586;12.286;2023-03-11T05:14:00;4.07;;;1.85;;
31730;SDS011;18310;55.586;12.286;2023-03-11T05:17:05;4.13;;;2.00;;
31730;SDS011;18310;55.586;12.286;2023-03-11T05:20:09;4.15;;;1.75;;
31730;SDS011;18310;55.586;12.286;2023-03-11T05:23:15;3.20;;;1.70;;
31730;SDS011;18310;55.586;12.286;2023-03-11T05:26:18;6.57;;;1.53;;
31730;SDS011;18310;55.586;12.286;2023-03-11T05:29:21;5.33;;;1.50;;
31730;SDS011;18310;55.586;12.286;2023-03-11T05:32:28;2.95;;;1.40;;
31730;SDS011;18310;55.586;12.286;2023-03-11T05:35:31;4.10;;;1.70;;
31730;SDS011;18310;55.586;12.286;2023-03-11T05:38:35;5.63;;;1.70;;
31730;SDS011;18310;55.586;12.286;2023-03-11T05:41:38;3.13;;;1.67;;
31730;SDS011;18310;55.586;12.286;2023-03-11T05:44:42;4.28;;;1.55;;
31730;SDS011;18310;55.586;12.286;2023-03-11T05:47:47;4.07;;;1.70;;
31730;SDS011;18310;55.586;12.286;2023-03-11T05:50:50;3.67;;;1.63;;
31730;SDS011;18310;55.586;12.286;2023-03-11T05:53:53;5.13;;;2.30;;
31730;SDS011;18310;55.586;12.286;2023-03-11T05:56:57;3.53;;;2.00;;
31730;SDS011;18310;55.586;12.286;2023-03-11T06:00:01;6.30;;;2.20;;
31730;SDS011;18310;55.586;12.286;2023-03-11T06:03:08;5.60;;;1.98;;
31730;SDS011;18310;55.586;12.286;2023-03-11T06:06:12;4.78;;;1.73;;
31730;SDS011;18310;55.586;12.286;2023-03-11T06:12:19;3.25;;;1.60;;
31730;SDS011;18310;55.586;12.286;2023-03-11T06:15:22;5.43;;;1.88;;
31730;SDS011;18310;55.586;12.286;2023-03-11T06:18:27;4.70;;;1.87;;
31730;SDS011;18310;55.586;12.286;2023-03-11T06:21:30;2.90;;;1.73;;
31730;SDS011;18310;55.586;12.286;2023-03-11T06:24:33;5.67;;;2.10;;
31730;SDS011;18310;55.586;12.286;2023-03-11T06:27:36;4.22;;;2.10;;
31730;SDS011;18310;55.586;12.286;2023-03-11T06:30:40;3.60;;;2.13;;
31730;SDS011;18310;55.586;12.286;2023-03-11T06:33:44;4.63;;;2.00;;
31730;SDS011;18310;55.586;12.286;2023-03-11T06:36:49;4.63;;;1.98;;
31730;SDS011;18310;55.586;12.286;2023-03-11T06:39:53;3.60;;;1.98;;
31730;SDS011;18310;55.586;12.286;2023-03-11T06:42:56;5.20;;;2.55;;
31730;SDS011;18310;55.586;12.286;2023-03-11T06:46:00;4.93;;;2.35;;
31730;SDS011;18310;55.586;12.286;2023-03-11T06:49:11;4.97;;;2.45;;
31730;SDS011;18310;55.586;12.286;2023-03-11T06:52:15;5.25;;;2.20;;
31730;SDS011;18310;55.586;12.286;2023-03-11T06:55:18;4.10;;;2.20;;
31730;SDS011;18310;55.586;12.286;2023-03-11T07:01:25;6.00;;;2.58;;
31730;SDS011;18310;55.586;12.286;2023-03-11T07:04:30;5.22;;;2.28;;
31730;SDS011;18310;55.586;12.286;2023-03-11T07:07:34;6.57;;;1.88;;
31730;SDS011;18310;55.586;12.286;2023-03-11T07:10:38;4.85;;;2.00;;
31730;SDS011;18310;55.586;12.286;2023-03-11T07:13:41;5.47;;;2.60;;
